首页
METAR-TAF:

METAR-TAF

机场 :

安特衛普國際機場

安特卫普, 比利时

纬度: 51-12N, 经度: 004-28E, 海拔: 12米

当前天气观测

该预报发布于28分钟前的19:20 UTC
风速13节,风向西南
温度 9°C
湿度 66%
气压 1025 hPa
能见度10公里或以上
多云层高于3600英尺

METAR: EBAW 211920Z 22013KT 9999 BKN036 09/03 Q1025 NOSIG

时间: 20:48 (19:48 UTC)

预报

该预报发布于2小时和38分钟前的17:10 UTC
预报有效从21日的 18点(UTC)到 22日的 03点(UTC)
风速13节,风向西南
能见度10公里或以上
多云层高于2000英尺
成为
从 21日的 20点(UTC)到 21日的 22点(UTC)
风速15节,风向西南,有时为25节阵风

TAF: EBAW 211710Z 2118/2203 22013KT 9999 BKN020 BECMG 2120/2122 23015G25KT

超过4000个机场的气象观测和天气预报(METAR&TAF报告)。

可查询的气象台以黄色和红色小点在地图上表示。

将鼠标移到小点上方,可查看气象台名称。

然后点击查看天气观测和预报。

如需切换地图:点击带黑十字的绿色按钮放大地图;点击带横线的绿色按钮缩小地图;或者点击绿色箭头查看邻近地区的地图。


METAR-TAF: